.
WxDataArchive / Data Records for 2012-07-02
2012-07-01 July 2012 2012-07-03

Data Records for Monday, 02 July 2012

Time	Temp	Chill	HIndex	Humid	Dewpt	 Wind 	HiWind	WindDir	Rain 	Barom 
-----	----	-----	------	-----	-----	------	------	-------	-----	----- 
00:00	69.6	69.6	69.6	83	64.2	0	0	---	0.00	29.940 
00:05	69.4	69.4	69.4	83	64.0	0	0	---	0.00	29.940 
00:10	69.3	69.3	69.3	84	64.2	0	0	---	0.00	29.940 
00:15	69.1	69.1	69.1	84	64.1	0	0	---	0.00	29.944 
00:20	68.9	68.9	68.9	84	63.9	0	0	---	0.00	29.944 
00:25	68.9	68.9	68.9	85	64.2	0	0	---	0.00	29.944 
00:30	68.8	68.8	68.8	85	64.1	0	0	---	0.00	29.944 
00:35	68.9	68.9	68.9	85	64.2	0	0	---	0.00	29.944 
00:40	69.1	69.1	69.1	85	64.4	0	0	---	0.00	29.944 
00:45	69.3	69.3	69.3	84	64.2	0	0	---	0.00	29.945 
00:50	69.3	69.3	69.3	84	64.2	0	1	112	0.00	29.945 
00:55	69.6	69.6	69.6	84	64.5	1	2	112	0.00	29.945 
01:00	70.1	70.1	70.1	83	64.7	1	2	112	0.00	29.941 
01:05	70.4	70.4	70.4	81	64.3	0	1	112	0.00	29.941 
01:10	70.6	70.6	70.6	80	64.1	1	2	112	0.00	29.941 
01:15	70.9	70.9	70.9	79	64.1	0	2	112	0.00	29.936 
01:20	70.9	70.9	70.9	79	64.1	0	1	112	0.00	29.936 
01:25	71.1	71.1	71.1	78	63.9	1	2	112	0.00	29.936 
01:30	71.1	71.1	71.1	77	63.5	0	2	112	0.00	29.936 
01:35	71.1	71.1	71.1	77	63.5	0	1	112	0.00	29.936 
01:40	71.1	71.1	71.1	78	63.9	0	1	112	0.00	29.936 
01:45	71.1	71.1	71.1	78	63.9	0	1	112	0.00	29.936 
01:50	71.1	71.1	71.1	79	64.2	0	1	112	0.00	29.936 
01:55	70.9	70.9	70.9	79	64.1	0	0	---	0.00	29.936 
02:00	70.8	70.8	70.8	79	64.0	0	0	---	0.00	29.940 
02:05	70.4	70.4	70.4	80	63.9	0	0	---	0.00	29.940 
02:10	70.1	70.1	70.1	80	63.6	0	0	---	0.00	29.940 
02:15	69.9	69.9	69.9	81	63.8	0	0	---	0.00	29.938 
02:20	69.6	69.6	69.6	81	63.5	0	0	---	0.00	29.938 
02:25	69.4	69.4	69.4	81	63.3	0	0	---	0.00	29.938 
02:30	69.1	69.1	69.1	82	63.4	0	0	---	0.00	29.949 
02:35	68.9	68.9	68.9	82	63.2	0	0	---	0.00	29.949 
02:40	68.6	68.6	68.6	83	63.2	0	0	---	0.00	29.949 
02:45	68.3	68.3	68.3	84	63.3	0	0	---	0.00	29.945 
02:50	67.9	67.9	67.9	84	62.9	0	0	---	0.00	29.945 
02:55	67.8	67.8	67.8	85	63.1	0	0	---	0.00	29.945 
03:00	67.6	67.6	67.6	86	63.3	0	0	---	0.00	29.940 
03:05	67.3	67.3	67.3	86	63.0	0	0	---	0.00	29.940 
03:10	67.3	67.3	67.3	87	63.3	0	0	---	0.00	29.940 
03:15	67.1	67.1	67.1	87	63.1	0	0	---	0.00	29.943 
03:20	66.9	66.9	66.9	87	62.9	0	0	---	0.00	29.943 
03:25	66.9	66.9	66.9	88	63.2	0	0	---	0.00	29.943 
03:30	66.8	66.8	66.8	88	63.1	0	0	---	0.00	29.940 
03:35	66.6	66.6	66.6	88	62.9	0	0	---	0.00	29.940 
03:40	66.4	66.4	66.4	88	62.7	0	0	---	0.00	29.940 
03:45	66.4	66.4	66.4	88	62.7	0	0	---	0.00	29.936 
03:50	66.3	66.3	66.3	88	62.6	0	0	---	0.00	29.936 
03:55	66.3	66.3	66.3	89	63.0	0	0	---	0.00	29.936 
04:00	66.1	66.1	66.1	89	62.8	0	0	---	0.00	29.926 
04:05	66.0	66.0	66.0	89	62.7	0	0	---	0.00	29.926 
04:10	66.0	66.0	66.0	89	62.7	0	0	---	0.00	29.926 
04:15	65.8	65.8	65.8	89	62.5	0	0	---	0.00	29.938 
04:20	65.6	65.6	65.6	89	62.3	0	0	---	0.00	29.938 
04:25	65.6	65.6	65.6	90	62.6	0	0	---	0.00	29.938 
04:30	65.5	65.5	65.5	90	62.5	0	0	---	0.00	29.938 
04:35	65.3	65.3	65.3	90	62.3	0	0	---	0.00	29.938 
04:40	65.3	65.3	65.3	90	62.3	0	0	---	0.00	29.938 
04:45	65.2	65.2	65.2	90	62.2	0	0	---	0.00	29.942 
04:50	65.0	65.0	65.0	90	62.0	0	0	---	0.00	29.942 
04:55	65.0	65.0	65.0	91	62.3	0	0	---	0.00	29.942 
05:00	64.8	64.8	64.8	91	62.1	0	0	---	0.00	29.951 
05:05	64.8	64.8	64.8	91	62.1	0	0	---	0.00	29.951 
05:10	64.7	64.7	64.7	91	62.0	0	0	---	0.00	29.951 
05:15	64.7	64.7	64.7	91	62.0	0	0	---	0.00	29.951 
05:20	64.7	64.7	64.7	91	62.0	0	0	---	0.00	29.951 
05:25	64.5	64.5	64.5	91	61.8	0	0	---	0.00	29.951 
05:30	64.3	64.3	64.3	91	61.6	0	0	---	0.00	29.954 
05:35	64.3	64.3	64.3	92	61.9	0	0	---	0.00	29.954 
05:40	64.2	64.2	64.2	92	61.8	0	0	---	0.00	29.954 
05:45	64.2	64.2	64.2	92	61.8	0	0	---	0.00	29.955 
05:50	64.2	64.2	64.2	92	61.8	0	0	---	0.00	29.955 
05:55	64.2	64.2	64.2	92	61.8	0	0	---	0.00	29.955 
06:00	64.2	64.2	64.2	92	61.8	0	0	---	0.00	29.958 
06:05	64.2	64.2	64.2	92	61.8	0	0	---	0.00	29.958 
06:10	64.2	64.2	64.2	92	61.8	0	0	---	0.00	29.958 
06:15	64.2	64.2	64.2	92	61.8	0	0	---	0.00	29.967 
06:20	64.0	64.0	64.0	93	61.9	0	0	---	0.00	29.967 
06:25	64.0	64.0	64.0	93	61.9	0	0	---	0.00	29.967 
06:30	63.9	63.9	63.9	93	61.8	0	0	---	0.00	29.969 
06:35	63.9	63.9	63.9	93	61.8	0	0	---	0.00	29.969 
06:40	63.9	63.9	63.9	93	61.8	0	0	---	0.00	29.969 
06:45	63.9	63.9	63.9	93	61.8	0	0	---	0.00	29.969 
06:50	64.0	64.0	64.0	93	61.9	0	0	---	0.00	29.969 
06:55	64.0	64.0	64.0	93	61.9	0	1	112	0.00	29.969 
07:00	64.3	64.3	64.3	94	62.5	0	0	---	0.00	29.969 
07:05	64.5	64.5	64.5	94	62.7	0	0	---	0.00	29.969 
07:10	64.7	64.7	64.7	94	62.9	0	0	---	0.00	29.969 
07:15	64.8	64.8	64.8	94	63.0	0	0	---	0.00	29.982 
07:20	65.2	65.2	65.2	94	63.4	0	1	112	0.00	29.982 
07:25	65.6	65.6	65.6	94	63.8	0	1	112	0.00	29.982 
07:30	66.3	66.3	66.3	94	64.5	0	1	112	0.00	29.981 
07:35	66.9	66.9	66.9	94	65.1	0	0	---	0.00	29.981 
07:40	67.8	67.8	67.8	93	65.7	0	0	---	0.00	29.981 
07:45	68.4	68.4	68.4	92	66.0	0	1	112	0.00	29.986 
07:50	69.1	69.1	69.1	90	66.0	0	1	112	0.00	29.986 
07:55	69.6	69.6	69.6	89	66.2	0	1	112	0.00	29.986 
08:00	69.9	69.9	69.9	88	66.2	0	1	112	0.00	29.987 
08:05	70.4	70.4	70.4	86	66.0	0	0	---	0.00	29.987 
08:10	71.1	71.1	71.1	83	65.7	0	2	112	0.00	29.987 
08:15	71.6	71.6	71.6	82	65.8	1	2	112	0.00	29.992 
08:20	72.3	72.3	72.3	80	65.8	0	1	112	0.00	29.992 
08:25	73.0	73.0	73.0	78	65.7	0	1	112	0.00	29.992 
08:30	73.5	73.5	73.5	76	65.5	1	3	112	0.00	29.992 
08:35	74.2	74.2	74.2	75	65.8	0	3	112	0.00	29.992 
08:40	74.6	74.6	74.6	75	66.1	0	2	112	0.00	29.992 
08:45	75.1	75.1	76.4	74	66.2	0	2	112	0.00	29.993 
08:50	75.4	75.4	76.8	73	66.1	1	3	112	0.00	29.993 
08:55	76.0	76.0	77.6	71	65.9	1	2	112	0.00	29.993 
09:00	76.5	76.5	78.2	70	66.0	0	2	112	0.00	30.004 
09:05	77.4	77.4	79.2	69	66.4	0	3	112	0.00	30.004 
09:10	77.9	77.9	79.8	67	66.0	0	2	112	0.00	30.004 
09:15	78.5	78.5	80.4	65	65.7	0	1	112	0.00	30.007 
09:20	78.8	78.8	80.7	63	65.1	0	1	112	0.00	30.007 
09:25	79.2	79.2	81.0	61	64.6	0	2	112	0.00	30.007 
09:30	79.6	79.6	81.3	60	64.5	1	3	112	0.00	30.006 
09:35	79.9	79.9	81.6	59	64.3	0	1	112	0.00	30.006 
09:40	80.1	80.1	81.9	60	64.9	1	4	112	0.00	30.006 
09:45	80.5	80.5	82.3	59	64.8	0	1	112	0.00	30.006 
09:50	81.2	81.2	82.9	57	64.5	0	2	112	0.00	30.006 
09:55	82.2	82.2	84.2	57	65.4	0	2	112	0.00	30.006 
10:00	82.6	82.6	84.5	56	65.3	1	2	112	0.00	30.004 
10:05	82.8	82.8	84.6	55	65.0	0	2	112	0.00	30.004 
10:10	83.2	83.2	85.1	55	65.3	1	2	112	0.00	30.004 
10:15	83.2	83.2	85.1	55	65.3	1	2	112	0.00	30.005 
10:20	83.4	83.4	85.2	54	65.0	0	1	112	0.00	30.005 
10:25	83.4	83.4	85.0	53	64.4	1	2	112	0.00	30.005 
10:30	84.0	84.0	85.8	53	65.0	0	2	112	0.00	30.004 
10:35	84.3	84.3	85.5	50	63.6	1	2	112	0.00	30.004 
10:40	84.1	84.1	85.0	49	62.8	1	3	112	0.00	30.004 
10:45	84.5	84.5	85.8	50	63.8	1	3	112	0.00	29.998 
10:50	85.1	85.1	86.4	49	63.8	1	3	112	0.00	29.998 
10:55	85.5	85.5	86.9	49	64.1	1	2	112	0.00	29.998 
11:00	85.7	85.7	86.7	47	63.1	1	3	112	0.00	29.989 
11:05	86.3	86.3	87.5	47	63.7	1	2	112	0.00	29.989 
11:10	86.3	86.3	87.8	48	64.3	1	2	112	0.00	29.989 
11:15	86.5	86.5	87.8	47	63.8	1	3	112	0.00	29.989 
11:20	86.7	86.7	88.3	48	64.6	1	3	112	0.00	29.989 
11:25	86.7	86.7	88.1	47	64.0	1	3	112	0.00	29.989 
11:30	86.3	86.3	87.8	48	64.3	1	3	112	0.00	29.990 
11:35	86.7	86.7	88.1	47	64.0	1	3	112	0.00	29.990 
11:40	87.4	87.4	88.8	46	64.0	1	4	112	0.00	29.990 
11:45	87.6	87.6	89.1	46	64.2	1	3	112	0.00	29.988 
11:50	88.0	88.0	90.0	47	65.2	0	2	112	0.00	29.988 
11:55	88.2	88.2	89.7	45	64.1	1	3	112	0.00	29.988 
12:00	87.8	87.8	89.4	46	64.4	1	2	112	0.00	29.985 
12:05	88.0	88.0	89.7	46	64.6	1	3	112	0.00	29.985 
12:10	88.2	88.2	90.0	46	64.8	1	3	112	0.00	29.985 
12:15	88.4	88.4	90.0	45	64.3	2	4	112	0.00	29.985 
12:20	88.8	88.8	90.9	46	65.3	1	4	112	0.00	29.985 
12:25	89.3	89.3	92.1	47	66.4	1	3	112	0.00	29.985 
12:30	89.5	89.5	91.7	45	65.3	2	3	112	0.00	29.977 
12:35	89.9	89.9	91.9	44	65.0	1	4	112	0.00	29.977 
12:40	89.9	89.9	92.7	46	66.3	1	4	270	0.00	29.977 
12:45	90.1	90.1	93.5	47	67.1	1	3	270	0.00	29.974 
12:50	90.1	90.1	92.3	44	65.2	0	2	270	0.00	29.974 
12:55	90.5	90.5	92.9	44	65.6	1	4	270	0.00	29.974 
13:00	90.7	90.7	93.3	44	65.7	1	3	270	0.00	29.970 
13:05	90.7	90.7	92.9	43	65.1	2	5	270	0.00	29.970 
13:10	90.3	90.3	92.6	44	65.4	1	2	292	0.00	29.970 
13:15	90.1	90.1	91.9	43	64.5	1	3	292	0.00	29.972 
13:20	90.5	90.5	92.5	43	64.9	1	4	292	0.00	29.972 
13:25	90.7	90.7	92.5	42	64.4	1	5	68	0.00	29.972 
13:30	91.0	91.0	93.4	43	65.4	1	5	90	0.00	29.968 
13:35	91.2	91.2	94.1	44	66.2	1	3	292	0.00	29.968 
13:40	91.2	91.2	93.7	43	65.5	0	2	292	0.00	29.968 
13:45	91.4	91.4	94.0	43	65.7	2	4	270	0.00	29.968 
13:50	91.6	91.6	93.9	42	65.2	1	3	270	0.00	29.968 
13:55	91.6	91.6	93.5	41	64.5	1	3	22	0.00	29.968 
14:00	92.1	92.1	94.4	41	65.0	1	3	22	0.00	29.965 
14:05	92.5	92.5	95.0	41	65.3	1	2	315	0.00	29.965 
14:10	93.2	93.2	95.8	40	65.2	0	2	315	0.00	29.965 
14:15	93.2	93.2	95.8	40	65.2	1	4	270	0.00	29.956 
14:20	93.4	93.4	95.7	39	64.7	1	3	292	0.00	29.956 
14:25	93.6	93.6	95.5	38	64.1	1	4	112	0.00	29.956 
14:30	93.8	93.8	96.3	39	65.0	1	2	112	0.00	29.952 
14:35	93.4	93.4	95.2	38	63.9	2	5	270	0.00	29.952 
14:40	93.2	93.2	95.3	39	64.5	2	4	270	0.00	29.952 
14:45	93.4	93.4	95.7	39	64.7	2	3	292	0.00	29.952 
14:50	93.4	93.4	94.8	37	63.2	1	4	292	0.00	29.952 
14:55	92.7	92.7	94.5	39	64.1	1	3	292	0.00	29.952 
15:00	92.7	92.7	94.5	39	64.1	1	4	292	0.00	29.949 
15:05	93.2	93.2	94.9	38	63.8	1	4	292	0.00	29.949 
15:10	92.7	92.7	94.5	39	64.1	1	4	292	0.00	29.949 
15:15	92.3	92.3	93.8	39	63.7	0	3	292	0.00	29.952 
15:20	93.2	93.2	96.2	41	65.9	0	4	315	0.00	29.952 
15:25	93.8	93.8	96.3	39	65.0	2	4	315	0.00	29.952 
15:30	93.8	93.8	95.4	37	63.5	1	3	292	0.00	29.950 
15:35	93.4	93.4	95.7	39	64.7	1	3	292	0.00	29.950 
15:40	93.6	93.6	95.5	38	64.1	1	2	315	0.00	29.950 
15:45	93.8	93.8	95.4	37	63.5	1	4	292	0.00	29.947 
15:50	93.2	93.2	95.3	39	64.5	0	2	292	0.00	29.947 
15:55	92.9	92.9	94.8	39	64.2	0	2	292	0.00	29.947 
16:00	93.4	93.4	95.7	39	64.7	0	2	292	0.00	29.949 
16:05	93.2	93.2	95.3	39	64.5	1	3	292	0.00	29.949 
16:10	93.4	93.4	95.2	38	63.9	1	4	292	0.00	29.949 
16:15	93.6	93.6	95.5	38	64.1	1	4	292	0.00	29.945 
16:20	93.8	93.8	95.9	38	64.3	1	4	292	0.00	29.945 
16:25	94.0	94.0	96.2	38	64.5	1	3	292	0.00	29.945 
16:30	93.8	93.8	95.4	37	63.5	0	2	292	0.00	29.939 
16:35	93.8	93.8	96.3	39	65.0	0	2	292	0.00	29.939 
16:40	93.8	93.8	96.3	39	65.0	1	3	292	0.00	29.939 
16:45	93.8	93.8	96.3	39	65.0	2	4	270	0.00	29.935 
16:50	93.8	93.8	96.3	39	65.0	1	4	270	0.00	29.935 
16:55	93.8	93.8	96.3	39	65.0	1	4	270	0.00	29.935 
17:00	94.0	94.0	96.7	39	65.2	1	4	270	0.00	29.932 
17:05	94.0	94.0	97.2	40	65.9	1	4	270	0.00	29.932 
17:10	93.6	93.6	97.0	41	66.3	1	3	270	0.00	29.932 
17:15	92.9	92.9	96.2	42	66.4	1	3	90	0.00	29.926 
17:20	92.7	92.7	95.4	41	65.5	1	3	0	0.00	29.926 
17:25	92.7	92.7	95.8	42	66.2	1	2	270	0.00	29.926 
17:30	92.7	92.7	95.4	41	65.5	1	2	270	0.00	29.924 
17:35	93.2	93.2	96.2	41	65.9	1	3	270	0.00	29.924 
17:40	93.6	93.6	96.5	40	65.6	0	2	270	0.00	29.924 
17:45	94.0	94.0	96.7	39	65.2	1	4	270	0.00	29.913 
17:50	94.0	94.0	97.2	40	65.9	1	4	292	0.00	29.913 
17:55	93.6	93.6	96.0	39	64.9	1	3	315	0.00	29.913 
18:00	93.2	93.2	96.2	41	65.9	1	3	315	0.00	29.910 
18:05	92.9	92.9	95.7	41	65.7	1	3	315	0.00	29.910 
18:10	92.7	92.7	95.8	42	66.2	1	3	315	0.00	29.910 
18:15	92.7	92.7	95.8	42	66.2	1	3	315	0.00	29.905 
18:20	92.7	92.7	95.8	42	66.2	1	3	315	0.00	29.905 
18:25	92.7	92.7	95.8	42	66.2	0	2	315	0.00	29.905 
18:30	92.3	92.3	94.7	41	65.1	1	3	315	0.00	29.905 
18:35	91.8	91.8	94.3	42	65.4	0	1	315	0.00	29.905 
18:40	91.2	91.2	93.7	43	65.5	1	3	315	0.00	29.905 
18:45	91.0	91.0	93.8	44	66.0	0	2	315	0.00	29.904 
18:50	91.0	91.0	93.8	44	66.0	0	2	315	0.00	29.904 
18:55	90.7	90.7	93.3	44	65.7	0	2	315	0.00	29.904 
19:00	90.7	90.7	93.7	45	66.4	0	3	315	0.00	29.904 
19:05	91.0	91.0	94.2	45	66.7	1	2	315	0.00	29.904 
19:10	91.0	91.0	93.8	44	66.0	0	3	315	0.00	29.904 
19:15	91.0	91.0	93.4	43	65.4	1	3	315	0.00	29.896 
19:20	91.0	91.0	93.8	44	66.0	1	3	315	0.00	29.896 
19:25	91.0	91.0	93.4	43	65.4	1	2	315	0.00	29.896 
19:30	91.0	91.0	93.8	44	66.0	2	4	292	0.00	29.894 
19:35	91.0	91.0	93.8	44	66.0	1	3	292	0.00	29.894 
19:40	90.7	90.7	93.7	45	66.4	1	4	292	0.00	29.894 
19:45	90.5	90.5	93.8	46	66.8	1	2	292	0.00	29.900 
19:50	90.3	90.3	93.4	46	66.7	1	4	292	0.00	29.900 
19:55	90.1	90.1	93.1	46	66.5	1	3	292	0.00	29.900 
20:00	90.1	90.1	93.1	46	66.5	1	4	292	0.00	29.905 
20:05	89.9	89.9	92.7	46	66.3	1	3	338	0.00	29.905 
20:10	89.7	89.7	92.4	46	66.1	1	3	248	0.00	29.905 
20:15	89.5	89.5	92.4	47	66.6	1	3	248	0.00	29.902 
20:20	89.3	89.3	92.1	47	66.4	1	3	248	0.00	29.902 
20:25	89.0	89.0	91.6	47	66.1	1	3	248	0.00	29.902 
20:30	88.8	88.8	91.3	47	65.9	1	3	248	0.00	29.904 
20:35	88.6	88.6	91.0	47	65.7	1	3	248	0.00	29.904 
20:40	88.4	88.4	91.0	48	66.2	1	2	292	0.00	29.904 
20:45	88.0	88.0	90.3	48	65.8	1	3	292	0.00	29.906 
20:50	88.0	88.0	90.3	48	65.8	1	2	292	0.00	29.906 
20:55	87.8	87.8	90.4	49	66.2	0	3	292	0.00	29.906 
21:00	87.6	87.6	90.0	49	66.0	1	2	292	0.00	29.909 
21:05	87.4	87.4	89.7	49	65.9	0	2	292	0.00	29.909 
21:10	87.4	87.4	89.7	49	65.9	1	2	292	0.00	29.909 
21:15	87.2	87.2	89.7	50	66.3	0	2	292	0.00	29.905 
21:20	87.2	87.2	89.7	50	66.3	0	1	292	0.00	29.905 
21:25	87.0	87.0	89.4	50	66.1	0	1	292	0.00	29.905 
21:30	86.7	86.7	89.3	51	66.4	0	1	292	0.00	29.907 
21:35	86.5	86.5	88.9	51	66.2	0	1	292	0.00	29.907 
21:40	86.3	86.3	88.9	52	66.6	0	1	292	0.00	29.907 
21:45	86.1	86.1	88.6	52	66.4	0	1	292	0.00	29.907 
21:50	85.9	85.9	88.3	52	66.2	0	1	292	0.00	29.907 
21:55	85.9	85.9	88.3	52	66.2	0	1	292	0.00	29.907 
22:00	85.7	85.7	88.3	53	66.6	0	0	---	0.00	29.916 
22:05	85.5	85.5	88.0	53	66.4	0	1	292	0.00	29.916 
22:10	85.3	85.3	87.7	53	66.2	0	0	---	0.00	29.916 
22:15	85.3	85.3	88.0	54	66.7	0	0	---	0.00	29.915 
22:20	85.1	85.1	87.7	54	66.6	0	1	292	0.00	29.915 
22:25	84.9	84.9	87.3	54	66.4	0	0	---	0.00	29.915 
22:30	84.7	84.7	87.3	55	66.7	0	0	---	0.00	29.916 
22:35	84.5	84.5	87.0	55	66.5	0	1	292	0.00	29.916 
22:40	84.3	84.3	87.0	56	66.9	0	1	292	0.00	29.916 
22:45	84.1	84.1	86.7	56	66.7	0	0	---	0.00	29.920 
22:50	84.0	84.0	86.7	57	67.1	0	0	---	0.00	29.920 
22:55	83.8	83.8	86.4	57	66.9	0	0	---	0.00	29.920 
23:00	83.6	83.6	86.4	58	67.2	0	0	---	0.00	29.919 
23:05	83.4	83.4	86.1	58	67.0	0	0	---	0.00	29.919 
23:10	83.2	83.2	86.0	59	67.4	0	0	---	0.00	29.919 
23:15	82.8	82.8	85.6	60	67.5	0	0	---	0.00	29.918 
23:20	82.4	82.4	85.2	61	67.6	0	0	---	0.00	29.918 
23:25	82.0	82.0	84.8	62	67.7	0	0	---	0.00	29.918 
23:30	81.6	81.6	84.4	63	67.8	0	0	---	0.00	29.915 
23:35	81.4	81.4	84.1	63	67.6	0	0	---	0.00	29.915 
23:40	81.1	81.1	83.8	64	67.7	0	0	---	0.00	29.915 
23:45	80.5	80.5	83.1	65	67.6	0	0	---	0.00	29.913 
23:50	80.1	80.1	82.5	65	67.2	0	0	---	0.00	29.913 
23:55	79.9	79.9	82.3	66	67.5	0	0	---	0.00	29.913 

CoCoRaHS
IN-AL-39
A2 Web Hosting
Creative Commons License
GoDaddy
search engine by freefind advanced

loaded 2018-11-15 05:21:15 • last modified 2010-11-18 10:43:29
Privacy PolicyDisclaimer
• wx.awcolley.com is powered by PmWiki v.2002016 •
• all content (unless otherwise noted) © 2018 A W Colley